Time;durP1;ratioP1;P1;durP2;ratioP2;P2;SDS_P1;SDS_P2;PMS_P1;PMS_P2;Temp;Humidity;BMP_temperature;BMP_pressure;BME280_temperature;BME280_humidity;BME280_pressure;Samples;Min_cycle;Max_cycle;Signal;HPM_P1;HPM_P2
2023/01/03 00:01:34;;;;;;;10.13;2.10;;;7.50;99.90;;;;;;5088389;28;20032;-72
2023/01/03 00:04:00;;;;;;;10.25;2.38;;;7.50;99.90;;;;;;5089875;28;20023;-72
2023/01/03 00:06:32;;;;;;;10.18;1.85;;;7.50;99.90;;;;;;5092109;28;20115;-73
2023/01/03 00:08:59;;;;;;;11.23;2.60;;;7.40;99.90;;;;;;5107394;28;20132;-73
2023/01/03 00:14:14;;;;;;;10.70;2.30;;;7.40;99.90;;;;;;5106400;28;20077;-73
2023/01/03 00:16:40;;;;;;;6.88;1.73;;;7.30;99.90;;;;;;5085365;28;20016;-74
2023/01/03 00:19:08;;;;;;;10.30;2.88;;;7.30;99.90;;;;;;5104200;28;20032;-73
2023/01/03 00:21:34;;;;;;;10.90;2.75;;;7.30;99.90;;;;;;5106352;28;20028;-72
2023/01/03 00:24:00;;;;;;;8.77;2.50;;;7.20;99.90;;;;;;5106460;28;20059;-72
2023/01/03 00:26:27;;;;;;;10.15;1.98;;;7.20;99.90;;;;;;5107847;28;20024;-73
2023/01/03 00:28:52;;;;;;;10.55;2.47;;;7.10;99.90;;;;;;5105421;28;20031;-73
2023/01/03 00:31:18;;;;;;;11.35;2.30;;;7.10;99.90;;;;;;5070445;28;20035;-72
2023/01/03 00:33:44;;;;;;;7.82;2.00;;;7.10;99.90;;;;;;5085601;28;20024;-73
2023/01/03 00:36:10;;;;;;;13.30;2.13;;;7.10;99.90;;;;;;5106635;28;20019;-72
2023/01/03 00:38:37;;;;;;;12.30;2.83;;;7.10;99.90;;;;;;5081227;28;20107;-75
2023/01/03 00:41:12;;;;;;;10.38;2.00;;;7.10;99.90;;;;;;5104742;28;20055;-72
2023/01/03 00:43:38;;;;;;;6.95;1.70;;;7.10;99.90;;;;;;5088479;28;20056;-73
2023/01/03 00:46:06;;;;;;;12.25;1.90;;;7.10;99.90;;;;;;5089365;28;20684;-72
2023/01/03 00:48:32;;;;;;;11.15;1.70;;;7.00;99.90;;;;;;5105227;28;20016;-71
2023/01/03 00:51:11;;;;;;;10.35;1.70;;;7.10;99.90;;;;;;5084766;28;20031;-71
2023/01/03 00:53:38;;;;;;;9.23;1.65;;;7.00;99.90;;;;;;5087080;28;20226;-71
2023/01/03 00:56:07;;;;;;;8.75;2.20;;;7.10;99.90;;;;;;5087746;28;20062;-72
2023/01/03 00:58:34;;;;;;;15.35;2.05;;;7.10;99.90;;;;;;5087939;28;20060;-72
2023/01/03 01:01:11;;;;;;;5.05;1.65;;;7.10;99.90;;;;;;5105407;28;20027;-72
2023/01/03 01:03:41;;;;;;;6.75;1.85;;;7.10;99.90;;;;;;5104459;28;20066;-73
2023/01/03 01:06:17;;;;;;;11.32;1.98;;;7.10;99.90;;;;;;5105454;28;20031;-73
2023/01/03 01:08:43;;;;;;;6.63;1.70;;;7.10;99.90;;;;;;5068932;28;20056;-72
2023/01/03 01:11:10;;;;;;;10.80;2.03;;;7.20;99.90;;;;;;5107562;28;20035;-72
2023/01/03 01:13:37;;;;;;;4.82;1.60;;;7.10;99.90;;;;;;5091901;28;20084;-73
2023/01/03 01:16:08;;;;;;;6.40;1.73;;;7.10;99.90;;;;;;5092641;28;20198;-72
2023/01/03 01:18:35;;;;;;;10.68;2.17;;;7.10;99.90;;;;;;5103621;28;20448;-74
2023/01/03 01:21:09;;;;;;;9.90;2.72;;;7.00;99.90;;;;;;5091368;28;20872;-72
2023/01/03 01:23:37;;;;;;;8.57;2.20;;;7.00;99.90;;;;;;5108863;28;20540;-72
2023/01/03 01:26:04;;;;;;;8.60;1.80;;;7.00;99.90;;;;;;5110873;28;20432;-72
2023/01/03 01:28:30;;;;;;;11.25;2.13;;;7.00;99.90;;;;;;5070977;28;20105;-72
2023/01/03 01:31:01;;;;;;;7.45;1.75;;;6.90;99.90;;;;;;5109883;28;20032;-73
2023/01/03 01:33:27;;;;;;;5.68;1.92;;;6.90;99.90;;;;;;5091112;28;20093;-72
2023/01/03 01:35:53;;;;;;;7.40;1.95;;;6.90;99.90;;;;;;5092523;28;20031;-73
2023/01/03 01:38:19;;;;;;;10.40;2.17;;;6.80;99.90;;;;;;5130428;28;20042;-73
2023/01/03 01:40:45;;;;;;;3.85;1.65;;;6.80;99.90;;;;;;5110267;28;20565;-73
2023/01/03 01:46:31;;;;;;;9.65;2.10;;;6.80;99.90;;;;;;5109134;28;20019;-73
2023/01/03 01:49:03;;;;;;;6.82;1.88;;;6.80;99.90;;;;;;5077571;28;20054;-73
2023/01/03 01:51:32;;;;;;;8.35;1.70;;;6.70;99.90;;;;;;5087432;28;20424;-73
2023/01/03 01:54:01;;;;;;;7.72;2.20;;;6.70;99.90;;;;;;5109644;28;20466;-73
2023/01/03 01:56:35;;;;;;;10.02;2.10;;;6.60;99.90;;;;;;5091942;28;20059;-73
2023/01/03 01:59:02;;;;;;;7.55;2.13;;;6.60;99.90;;;;;;5107967;28;20040;-72
2023/01/03 02:01:29;;;;;;;5.90;1.95;;;6.60;99.90;;;;;;5111372;28;20027;-73
2023/01/03 02:04:04;;;;;;;10.00;2.40;;;6.60;99.90;;;;;;5109362;28;20084;-72
2023/01/03 02:06:31;;;;;;;10.40;2.38;;;6.50;99.90;;;;;;5107935;28;20106;-72
2023/01/03 02:08:58;;;;;;;9.05;2.80;;;6.60;99.90;;;;;;5086605;28;20028;-73
2023/01/03 02:11:39;;;;;;;8.18;2.35;;;6.50;99.90;;;;;;5090442;28;20042;-72
2023/01/03 02:14:07;;;;;;;;;;;6.50;99.90;;;;;;5091988;28;20569;-73
2023/01/03 02:17:11;;;;;;;9.48;2.42;;;6.50;99.90;;;;;;5109200;28;19908;-72
2023/01/03 02:20:11;;;;;;;10.98;2.60;;;6.50;99.90;;;;;;5013367;28;20022;-72
2023/01/03 02:22:54;;;;;;;7.22;2.50;;;6.50;99.90;;;;;;5109017;28;20052;-71
2023/01/03 02:25:32;;;;;;;8.98;2.40;;;6.40;99.90;;;;;;5087936;28;20094;-71
2023/01/03 02:28:30;;;;;;;10.35;2.45;;;6.40;99.90;;;;;;5091441;28;20031;-72
2023/01/03 02:31:10;;;;;;;10.13;2.63;;;6.40;99.90;;;;;;5089203;28;20064;-71
2023/01/03 02:33:47;;;;;;;8.40;2.78;;;6.40;99.90;;;;;;5109082;28;20024;-72
2023/01/03 02:36:19;;;;;;;7.90;2.47;;;6.30;99.90;;;;;;5088939;28;20118;-72
2023/01/03 02:38:54;;;;;;;11.00;2.65;;;6.30;99.90;;;;;;5089666;28;20035;-72
2023/01/03 02:41:38;;;;;;;9.65;2.33;;;6.30;99.90;;;;;;5103449;28;20072;-71
2023/01/03 02:44:14;;;;;;;7.63;2.65;;;6.30;99.90;;;;;;5106999;28;20036;-71
2023/01/03 02:46:46;;;;;;;11.70;3.13;;;6.20;99.90;;;;;;5074464;28;20411;-73
2023/01/03 02:49:43;;;;;;;15.07;2.95;;;6.20;99.90;;;;;;5107542;28;20046;-72
2023/01/03 02:52:16;;;;;;;6.72;2.53;;;6.30;99.90;;;;;;5108920;28;20024;-73
2023/01/03 02:55:06;;;;;;;6.82;2.95;;;6.20;99.90;;;;;;5105152;28;20020;-72
2023/01/03 02:57:54;;;;;;;7.82;2.40;;;6.20;99.90;;;;;;5089814;28;20027;-71
2023/01/03 03:00:24;;;;;;;8.70;2.92;;;6.20;99.90;;;;;;5087480;28;20031;-72
2023/01/03 03:02:55;;;;;;;6.85;2.25;;;6.10;99.90;;;;;;5090932;28;20024;-72
2023/01/03 03:05:51;;;;;;;9.25;2.80;;;6.10;99.90;;;;;;5089593;28;20418;-74
2023/01/03 03:08:17;;;;;;;9.30;2.67;;;6.10;99.90;;;;;;5090434;28;20695;-73
2023/01/03 03:13:38;;;;;;;8.32;2.80;;;6.10;99.90;;;;;;5106992;28;20550;-71
2023/01/03 03:16:46;;;;;;;10.35;2.90;;;6.10;99.90;;;;;;5108535;28;20036;-71
2023/01/03 03:25:31;;;;;;;12.60;3.10;;;6.00;99.90;;;;;;5106682;28;20447;-73
2023/01/03 03:30:54;;;;;;;7.28;2.80;;;5.90;99.90;;;;;;5106526;28;20560;-71
2023/01/03 03:33:22;;;;;;;14.10;3.40;;;5.90;99.90;;;;;;5089595;28;20057;-72
2023/01/03 03:36:23;;;;;;;11.98;3.10;;;5.90;99.90;;;;;;5106226;28;20138;-71
2023/01/03 03:38:49;;;;;;;10.37;3.00;;;5.90;99.90;;;;;;5104665;27;20656;-71
2023/01/03 03:47:41;;;;;;;6.90;2.92;;;5.90;99.90;;;;;;5103925;28;20046;-71
2023/01/03 03:50:16;;;;;;;6.47;2.85;;;5.80;99.90;;;;;;5088098;28;20118;-71
2023/01/03 03:52:46;;;;;;;9.00;2.65;;;5.80;99.90;;;;;;5107708;28;20497;-71
2023/01/03 03:55:24;;;;;;;8.03;3.53;;;5.80;99.90;;;;;;5108574;28;20024;-71
2023/01/03 03:57:58;;;;;;;7.38;2.97;;;5.80;99.90;;;;;;5087158;28;20031;-71
2023/01/03 04:00:28;;;;;;;8.93;2.92;;;5.80;99.90;;;;;;5090337;28;20114;-71
2023/01/03 04:02:56;;;;;;;8.18;3.30;;;5.70;99.90;;;;;;5105718;28;20030;-71
2023/01/03 04:05:26;;;;;;;8.30;3.03;;;5.70;99.90;;;;;;5107877;28;20027;-71
2023/01/03 04:07:52;;;;;;;10.75;3.50;;;5.70;99.90;;;;;;5106535;28;20564;-71
2023/01/03 04:10:19;;;;;;;6.93;2.95;;;5.70;99.90;;;;;;5089136;28;20027;-71
2023/01/03 04:12:50;;;;;;;8.95;3.58;;;5.60;99.90;;;;;;5072333;28;20118;-71
2023/01/03 04:15:16;;;;;;;11.50;3.75;;;5.60;99.90;;;;;;5089511;28;20077;-72
2023/01/03 04:17:42;;;;;;;7.70;3.38;;;5.70;99.90;;;;;;5105023;28;20034;-71
2023/01/03 04:20:09;;;;;;;7.40;3.40;;;5.60;99.90;;;;;;5105934;28;20111;-72
2023/01/03 04:22:36;;;;;;;10.57;3.92;;;5.60;99.90;;;;;;5107996;28;20625;-71
2023/01/03 04:25:02;;;;;;;10.32;3.72;;;5.60;99.90;;;;;;5088829;28;20426;-72
2023/01/03 04:27:27;;;;;;;12.52;3.97;;;5.60;99.90;;;;;;5106341;28;20027;-71
2023/01/03 04:29:53;;;;;;;12.30;3.95;;;5.60;99.90;;;;;;5104149;28;20036;-72
2023/01/03 04:32:19;;;;;;;9.82;3.88;;;5.60;99.90;;;;;;5087374;28;20035;-73
2023/01/03 04:34:44;;;;;;;8.75;3.55;;;5.50;99.90;;;;;;5105928;28;20027;-72
2023/01/03 04:37:10;;;;;;;12.27;4.03;;;5.50;99.90;;;;;;5104569;28;20551;-72
2023/01/03 04:39:36;;;;;;;11.75;4.63;;;5.50;99.90;;;;;;5106569;28;20030;-72
2023/01/03 04:44:00;;;;;;;7.38;4.18;;;5.50;99.90;;;;;;5099913;28;20024;-71
2023/01/03 04:44:47;;;;;;;8.82;4.22;;;5.40;99.90;;;;;;5104867;28;20067;-70
2023/01/03 04:47:13;;;;;;;6.78;4.28;;;5.50;99.90;;;;;;5088131;28;20465;-71
2023/01/03 04:49:39;;;;;;;7.15;4.32;;;5.40;99.90;;;;;;5085871;28;20420;-71
2023/01/03 04:52:04;;;;;;;12.68;4.38;;;5.40;99.90;;;;;;5087617;28;20054;-74
2023/01/03 04:54:30;;;;;;;12.00;3.97;;;5.40;99.90;;;;;;5089732;28;20038;-72
2023/01/03 04:56:55;;;;;;;14.98;5.20;;;5.40;99.90;;;;;;5104130;28;20028;-71
2023/01/03 04:59:21;;;;;;;14.65;4.50;;;5.30;99.90;;;;;;5082621;28;20491;-71
2023/01/03 05:01:50;;;;;;;11.13;3.97;;;5.30;99.90;;;;;;5083194;28;20028;-71
2023/01/03 05:04:17;;;;;;;9.90;3.78;;;5.30;99.90;;;;;;5106673;28;20038;-71
2023/01/03 05:06:42;;;;;;;11.73;4.35;;;5.30;99.90;;;;;;5107501;28;20144;-71
2023/01/03 05:09:08;;;;;;;11.48;4.13;;;5.30;99.90;;;;;;5088755;28;20123;-71
2023/01/03 05:11:34;;;;;;;11.60;4.30;;;5.30;99.90;;;;;;5088406;28;20020;-72
2023/01/03 05:13:59;;;;;;;12.07;4.65;;;5.30;99.90;;;;;;5102130;28;20028;-71
2023/01/03 05:16:25;;;;;;;11.25;4.57;;;5.30;99.90;;;;;;5105377;28;20027;-71
2023/01/03 05:18:52;;;;;;;17.02;5.20;;;5.30;99.90;;;;;;5088837;28;20031;-71
2023/01/03 05:26:50;;;;;;;17.15;4.47;;;5.30;99.90;;;;;;5087016;28;20032;-71
2023/01/03 05:29:19;;;;;;;14.15;4.78;;;5.20;99.90;;;;;;5088117;28;20055;-72
2023/01/03 05:31:45;;;;;;;7.80;4.47;;;5.20;99.90;;;;;;5106650;28;20031;-71
2023/01/03 05:34:11;;;;;;;9.30;4.55;;;5.20;99.90;;;;;;5085989;28;20016;-71
2023/01/03 05:36:37;;;;;;;10.65;4.07;;;5.20;99.90;;;;;;5086329;28;20113;-71
2023/01/03 05:39:03;;;;;;;12.70;4.80;;;5.10;99.90;;;;;;5104943;28;20344;-71
2023/01/03 05:44:13;;;;;;;10.48;4.53;;;5.10;99.90;;;;;;5101156;28;20032;-71
2023/01/03 05:46:38;;;;;;;11.65;4.57;;;5.10;99.90;;;;;;5087308;28;20042;-72
2023/01/03 05:49:06;;;;;;;10.02;4.72;;;5.10;99.90;;;;;;5099633;28;20104;-72
2023/01/03 05:51:32;;;;;;;10.48;4.85;;;5.00;99.90;;;;;;5087573;28;20027;-71
2023/01/03 05:53:58;;;;;;;15.02;4.93;;;5.00;99.90;;;;;;5104016;28;20035;-71
2023/01/03 05:56:24;;;;;;;9.50;4.95;;;5.00;99.90;;;;;;5085124;28;20693;-71
2023/01/03 05:58:49;;;;;;;9.15;5.32;;;5.00;99.90;;;;;;5107886;28;20040;-72
2023/01/03 06:01:15;;;;;;;14.00;6.20;;;5.00;99.90;;;;;;5106074;28;20411;-71
2023/01/03 06:03:46;;;;;;;15.15;5.90;;;5.00;99.90;;;;;;5088840;28;20034;-71
2023/01/03 06:06:13;;;;;;;10.73;5.30;;;5.00;99.90;;;;;;5090790;28;20107;-71
2023/01/03 06:08:39;;;;;;;13.00;6.00;;;5.00;99.90;;;;;;5074845;28;20059;-71
2023/01/03 06:11:07;;;;;;;15.40;5.97;;;5.00;99.90;;;;;;5086833;28;20035;-71
2023/01/03 06:13:33;;;;;;;19.63;6.40;;;5.00;99.90;;;;;;5105823;28;20095;-72
2023/01/03 06:18:51;;;;;;;11.98;6.70;;;5.50;99.90;;;;;;5087451;28;20046;-71
2023/01/03 06:21:17;;;;;;;12.05;6.35;;;5.30;99.90;;;;;;5105001;27;20422;-71
2023/01/03 06:23:47;;;;;;;11.48;6.15;;;5.20;99.90;;;;;;5106415;28;20080;-71
2023/01/03 06:26:14;;;;;;;12.75;6.30;;;5.10;99.90;;;;;;5091682;28;20092;-72
2023/01/03 06:28:40;;;;;;;13.68;6.47;;;5.00;99.90;;;;;;5106342;28;20063;-71
2023/01/03 06:31:05;;;;;;;15.27;6.80;;;5.00;99.90;;;;;;5082881;28;20511;-71
2023/01/03 06:33:31;;;;;;;15.52;7.03;;;5.00;99.90;;;;;;5101164;28;20121;-72
2023/01/03 06:36:02;;;;;;;14.98;6.68;;;4.90;99.90;;;;;;5105448;28;20102;-71
2023/01/03 06:38:28;;;;;;;11.57;6.47;;;4.90;99.90;;;;;;5106194;28;20059;-71
2023/01/03 06:40:53;;;;;;;20.75;7.28;;;4.90;99.90;;;;;;5088748;27;20613;-71
2023/01/03 06:43:19;;;;;;;15.60;7.22;;;4.90;99.90;;;;;;5087097;28;20119;-72
2023/01/03 06:54:04;;;;;;;14.93;7.30;;;4.80;99.90;;;;;;5102805;28;20431;-71
2023/01/03 06:56:30;;;;;;;10.82;6.25;;;4.70;99.90;;;;;;5107549;28;20028;-70
2023/01/03 06:58:55;;;;;;;13.68;6.80;;;4.80;99.90;;;;;;5087099;28;20697;-71
2023/01/03 07:01:21;;;;;;;15.70;7.18;;;4.80;99.90;;;;;;5080980;28;20240;-72
2023/01/03 07:03:47;;;;;;;16.40;7.68;;;4.80;99.90;;;;;;5099109;27;20077;-73
2023/01/03 07:06:13;;;;;;;14.05;6.93;;;4.90;99.90;;;;;;5087337;28;20032;-71
2023/01/03 07:08:39;;;;;;;12.25;6.55;;;4.80;99.90;;;;;;5087434;28;20028;-76
2023/01/03 07:11:04;;;;;;;10.77;5.60;;;4.90;99.90;;;;;;5105858;27;20034;-72
2023/01/03 07:16:16;;;;;;;11.98;6.13;;;4.90;99.90;;;;;;5108157;28;20027;-73
2023/01/03 07:18:42;;;;;;;14.25;6.18;;;4.90;99.90;;;;;;5091350;28;20106;-72
2023/01/03 07:21:08;;;;;;;12.70;5.63;;;4.90;99.90;;;;;;5073383;28;20035;-76
2023/01/03 07:23:34;;;;;;;14.40;5.78;;;4.90;99.90;;;;;;5104831;28;20203;-74
2023/01/03 07:26:00;;;;;;;9.52;5.25;;;4.80;99.90;;;;;;5084362;28;20483;-74
2023/01/03 07:28:26;;;;;;;12.02;6.03;;;4.80;99.90;;;;;;5106095;28;20043;-73
2023/01/03 07:30:58;;;;;;;12.77;6.15;;;4.80;99.90;;;;;;5091727;28;20036;-74
2023/01/03 07:33:24;;;;;;;7.93;5.25;;;4.80;99.90;;;;;;5070257;28;20592;-72
2023/01/03 07:35:49;;;;;;;10.32;5.15;;;4.70;99.90;;;;;;5062490;28;20031;-72
2023/01/03 07:38:15;;;;;;;12.35;5.50;;;4.70;99.90;;;;;;5076474;28;20075;-72
2023/01/03 07:40:41;;;;;;;12.93;5.60;;;4.60;99.90;;;;;;5106198;28;20042;-72
2023/01/03 07:45:54;;;;;;;12.10;5.60;;;4.60;99.90;;;;;;5110386;28;20384;-71
2023/01/03 07:48:19;;;;;;;12.57;6.32;;;4.60;99.90;;;;;;5112420;28;20030;-72
2023/01/03 07:50:45;;;;;;;14.85;5.57;;;4.60;99.90;;;;;;5076129;28;20444;-72
2023/01/03 07:53:15;;;;;;;10.02;4.82;;;4.60;99.90;;;;;;5092044;28;20019;-72
2023/01/03 07:55:45;;;;;;;12.20;5.83;;;4.60;99.90;;;;;;5092027;28;20030;-72
2023/01/03 07:58:11;;;;;;;11.05;5.72;;;4.60;99.90;;;;;;5088595;28;20027;-72
2023/01/03 08:00:38;;;;;;;11.25;5.40;;;4.60;99.90;;;;;;5103440;28;20763;-72
2023/01/03 08:03:04;;;;;;;11.93;5.70;;;4.60;99.90;;;;;;5070647;28;20050;-73
2023/01/03 08:05:30;;;;;;;15.40;6.40;;;4.60;99.90;;;;;;5091505;28;20059;-72
2023/01/03 08:07:55;;;;;;;13.65;5.70;;;4.60;99.90;;;;;;5115423;28;20118;-71
2023/01/03 08:13:16;;;;;;;15.88;6.57;;;4.60;99.90;;;;;;5106000;28;20368;-72
2023/01/03 08:15:54;;;;;;;16.60;6.00;;;4.60;99.90;;;;;;5101063;28;20100;-72
2023/01/03 08:18:25;;;;;;;13.98;6.22;;;4.60;99.90;;;;;;5104389;28;20028;-71
2023/01/03 08:20:53;;;;;;;15.25;6.65;;;4.60;99.90;;;;;;5106351;28;20103;-71
2023/01/03 08:23:20;;;;;;;15.13;6.70;;;4.60;99.90;;;;;;5108953;28;20036;-72
2023/01/03 08:25:45;;;;;;;17.75;7.95;;;4.60;99.90;;;;;;5086887;28;20087;-73
2023/01/03 08:28:11;;;;;;;12.05;6.75;;;4.60;99.90;;;;;;5073193;28;20036;-72
2023/01/03 08:30:44;;;;;;;14.57;7.38;;;4.60;99.90;;;;;;5091193;28;20020;-73
2023/01/03 08:33:12;;;;;;;16.17;7.13;;;4.60;99.90;;;;;;5120635;28;20059;-74
2023/01/03 08:35:43;;;;;;;14.63;7.28;;;4.60;99.90;;;;;;5075244;28;20019;-74
2023/01/03 08:38:14;;;;;;;13.77;7.60;;;4.60;99.90;;;;;;5087398;28;20035;-73
2023/01/03 08:40:40;;;;;;;21.02;8.15;;;4.60;99.90;;;;;;5085908;28;20029;-73
2023/01/03 08:43:07;;;;;;;15.52;7.47;;;4.60;99.90;;;;;;5069630;28;20088;-73
2023/01/03 08:45:33;;;;;;;17.38;7.28;;;4.60;99.90;;;;;;5090655;28;20028;-74
2023/01/03 08:48:01;;;;;;;13.30;7.40;;;4.60;99.90;;;;;;5074506;28;20394;-72
2023/01/03 08:50:29;;;;;;;16.17;7.53;;;4.70;99.90;;;;;;5110202;28;20960;-74
2023/01/03 08:52:56;;;;;;;19.58;8.48;;;4.70;99.90;;;;;;5107298;28;20098;-74
2023/01/03 08:55:22;;;;;;;18.60;8.35;;;4.70;99.90;;;;;;5103001;28;20708;-73
2023/01/03 08:57:48;;;;;;;15.10;7.72;;;4.60;99.90;;;;;;5108767;28;20039;-73
2023/01/03 09:00:14;;;;;;;19.27;8.63;;;4.60;99.90;;;;;;5091766;28;20027;-73
2023/01/03 09:02:40;;;;;;;19.13;8.80;;;4.70;99.90;;;;;;5109523;28;20077;-72
2023/01/03 09:05:07;;;;;;;19.27;9.20;;;4.60;99.90;;;;;;5088871;28;20061;-74
2023/01/03 09:07:33;;;;;;;17.42;8.07;;;5.30;99.90;;;;;;5082742;28;20038;-73
2023/01/03 09:09:59;;;;;;;16.73;8.18;;;5.00;99.90;;;;;;5092030;28;20028;-72
2023/01/03 09:12:25;;;;;;;14.20;7.85;;;4.90;99.90;;;;;;5103442;28;20035;-73
2023/01/03 09:14:51;;;;;;;21.42;8.38;;;4.90;99.90;;;;;;5074093;28;20039;-75
2023/01/03 09:17:17;;;;;;;18.45;8.07;;;4.80;99.90;;;;;;5086738;28;20024;-74
2023/01/03 09:19:43;;;;;;;14.35;8.00;;;4.80;99.90;;;;;;5089405;28;20031;-74
2023/01/03 09:22:09;;;;;;;15.30;8.15;;;4.80;99.90;;;;;;5086678;28;20031;-72
2023/01/03 09:24:34;;;;;;;18.05;7.97;;;4.70;99.90;;;;;;5107626;28;20506;-74
2023/01/03 09:27:00;;;;;;;18.60;8.43;;;4.80;99.90;;;;;;5090136;28;20499;-73
2023/01/03 09:29:26;;;;;;;17.95;10.05;;;4.80;99.90;;;;;;5090899;28;20042;-73
2023/01/03 09:31:52;;;;;;;19.52;8.50;;;4.80;99.90;;;;;;5108640;28;20031;-73
2023/01/03 09:34:18;;;;;;;16.25;8.30;;;4.80;99.90;;;;;;5093214;28;20023;-74
2023/01/03 09:36:44;;;;;;;16.67;8.50;;;4.80;99.90;;;;;;5090993;28;20026;-72
2023/01/03 09:39:10;;;;;;;17.13;9.73;;;4.80;99.90;;;;;;5091326;28;20390;-73
2023/01/03 09:41:38;;;;;;;17.20;8.63;;;4.80;99.90;;;;;;5109646;28;20035;-74
2023/01/03 09:44:06;;;;;;;19.25;8.88;;;4.80;99.90;;;;;;5092533;28;20049;-74
2023/01/03 09:46:34;;;;;;;17.58;9.45;;;4.80;99.90;;;;;;5092654;28;20031;-75
2023/01/03 09:49:01;;;;;;;14.90;8.00;;;4.80;99.90;;;;;;5095501;28;20123;-74
2023/01/03 10:03:43;;;;;;;22.67;10.07;;;4.80;99.90;;;;;;5097998;28;20031;-74
2023/01/03 10:06:20;;;;;;;18.55;9.55;;;4.90;99.90;;;;;;5077666;28;20525;-73
2023/01/03 10:09:18;;;;;;;20.55;8.75;;;4.90;99.90;;;;;;5112367;28;20023;-74
2023/01/03 10:12:14;;;;;;;20.63;8.68;;;5.00;99.90;;;;;;5089362;28;20093;-74
2023/01/03 10:14:43;;;;;;;21.00;8.82;;;5.10;99.90;;;;;;5112592;28;20024;-74
2023/01/03 10:17:17;;;;;;;17.27;9.02;;;5.10;99.90;;;;;;5074999;28;20036;-75
2023/01/03 10:20:04;;;;;;;15.63;7.80;;;5.20;99.90;;;;;;5097232;28;20047;-74
2023/01/03 10:22:31;;;;;;;17.40;8.30;;;5.30;99.90;;;;;;5105088;28;20035;-75
2023/01/03 10:25:03;;;;;;;19.48;8.68;;;5.40;99.90;;;;;;5092833;28;20059;-73
2023/01/03 10:27:55;;;;;;;19.02;9.13;;;5.40;99.90;;;;;;5112214;28;20115;-74
2023/01/03 10:30:40;;;;;;;19.20;8.93;;;5.40;99.90;;;;;;5108532;28;20039;-75
2023/01/03 10:33:45;;;;;;;16.20;8.82;;;5.50;99.90;;;;;;5092477;28;20499;-75
2023/01/03 10:36:11;;;;;;;23.67;8.63;;;5.50;99.90;;;;;;5092150;28;20035;-75
2023/01/03 10:38:38;;;;;;;21.77;9.05;;;5.50;99.90;;;;;;5112270;28;20066;-74
2023/01/03 10:41:13;;;;;;;20.55;9.10;;;5.60;99.90;;;;;;5092782;28;20055;-74
2023/01/03 10:43:42;;;;;;;18.40;9.40;;;5.60;99.90;;;;;;5089066;28;20023;-73
2023/01/03 10:46:21;;;;;;;18.60;8.02;;;5.70;99.90;;;;;;5091304;28;20042;-72
2023/01/03 10:48:52;;;;;;;18.23;9.20;;;5.80;99.90;;;;;;5105793;28;20050;-74
2023/01/03 10:51:34;;;;;;;16.40;8.63;;;5.80;99.90;;;;;;5095494;28;20032;-72
2023/01/03 10:54:11;;;;;;;19.60;9.38;;;5.80;99.90;;;;;;5101845;28;20036;-71
2023/01/03 10:56:37;;;;;;;19.58;8.85;;;5.80;99.90;;;;;;5092907;28;20496;-72
2023/01/03 10:59:23;;;;;;;17.52;8.35;;;5.80;99.90;;;;;;5109467;28;20051;-72
2023/01/03 11:02:01;;;;;;;18.33;9.02;;;5.80;99.90;;;;;;5108226;28;20481;-73
2023/01/03 11:04:31;;;;;;;19.83;7.93;;;5.70;99.90;;;;;;5108636;28;21083;-73
2023/01/03 11:07:08;;;;;;;17.60;9.15;;;5.70;99.90;;;;;;5094012;28;20027;-73
2023/01/03 11:09:42;;;;;;;16.70;8.52;;;5.60;99.90;;;;;;5108462;28;20157;-72
2023/01/03 11:12:18;;;;;;;18.92;8.38;;;5.60;99.90;;;;;;5083860;28;20432;-72
2023/01/03 11:14:54;;;;;;;17.75;8.25;;;5.60;99.90;;;;;;5087954;28;20295;-71
2023/01/03 11:17:23;;;;;;;17.20;8.13;;;5.60;99.90;;;;;;5089012;28;20031;-72
2023/01/03 11:19:51;;;;;;;19.73;8.02;;;5.70;99.90;;;;;;5108312;28;20092;-71
2023/01/03 11:22:45;;;;;;;15.55;7.40;;;5.80;99.90;;;;;;5090273;28;20507;-73
2023/01/03 11:25:11;;;;;;;15.63;7.65;;;5.70;99.90;;;;;;5070161;28;20513;-73
2023/01/03 11:28:05;;;;;;;16.58;7.43;;;5.70;99.90;;;;;;5105141;28;20031;-73
2023/01/03 11:31:05;;;;;;;12.32;7.50;;;5.70;99.90;;;;;;5073548;28;20571;-73
2023/01/03 11:33:34;;;;;;;12.87;6.73;;;5.70;99.90;;;;;;5089716;28;20039;-71
2023/01/03 11:36:06;;;;;;;12.32;6.82;;;5.60;99.90;;;;;;5104475;28;20080;-72
2023/01/03 11:38:50;;;;;;;12.88;6.28;;;5.60;99.90;;;;;;5099453;28;20031;-72
2023/01/03 11:41:16;;;;;;;16.60;6.55;;;5.60;99.90;;;;;;5082972;28;20411;-73
2023/01/03 11:43:51;;;;;;;15.55;6.53;;;5.60;99.90;;;;;;5097005;28;20586;-73
2023/01/03 11:46:45;;;;;;;10.80;6.03;;;5.70;99.90;;;;;;5077826;27;20028;-73
2023/01/03 11:49:16;;;;;;;11.30;6.00;;;5.60;99.90;;;;;;5101763;28;20031;-72
2023/01/03 11:52:04;;;;;;;13.30;6.00;;;5.70;99.90;;;;;;5101179;28;20017;-71
2023/01/03 11:55:00;;;;;;;14.07;5.32;;;5.70;99.90;;;;;;5065738;28;20518;-71
2023/01/03 11:57:38;;;;;;;10.70;5.22;;;5.70;99.90;;;;;;5085540;28;20028;-73
2023/01/03 12:00:23;;;;;;;10.60;4.82;;;5.70;99.90;;;;;;5090019;28;20143;-73
2023/01/03 12:03:42;;;;;;;9.95;5.15;;;5.80;99.90;;;;;;5077165;28;20058;-72
2023/01/03 12:06:12;;;;;;;12.73;5.20;;;5.80;99.90;;;;;;5083823;28;20034;-73
2023/01/03 12:08:47;;;;;;;11.40;5.37;;;5.70;99.90;;;;;;5101797;28;20490;-72
2023/01/03 12:11:29;;;;;;;11.80;5.88;;;5.80;99.90;;;;;;5085099;28;20361;-74
2023/01/03 12:14:10;;;;;;;10.00;5.00;;;5.80;99.90;;;;;;5065615;27;20026;-73
2023/01/03 12:16:42;;;;;;;10.65;5.38;;;5.80;99.90;;;;;;5069512;28;20027;-73
2023/01/03 12:19:41;;;;;;;9.57;4.38;;;5.80;99.90;;;;;;5108405;28;20489;-74
2023/01/03 12:22:15;;;;;;;13.15;5.30;;;5.80;99.90;;;;;;5106825;28;20380;-75
2023/01/03 12:25:18;;;;;;;14.90;5.03;;;5.80;99.90;;;;;;5106653;28;20388;-73
2023/01/03 12:27:52;;;;;;;11.07;5.30;;;5.80;99.90;;;;;;5019997;28;20084;-74
2023/01/03 12:30:49;;;;;;;12.80;6.05;;;5.80;99.90;;;;;;5088933;28;20031;-74
2023/01/03 12:33:30;;;;;;;19.88;5.60;;;5.80;99.90;;;;;;5105862;28;20056;-73
2023/01/03 12:36:26;;;;;;;11.23;5.25;;;5.80;99.90;;;;;;5092179;28;20499;-73
2023/01/03 12:39:35;;;;;;;12.45;5.20;;;5.80;99.90;;;;;;5068013;28;20127;-74
2023/01/03 12:42:17;;;;;;;10.10;5.40;;;5.80;99.90;;;;;;5062139;28;20587;-75
2023/01/03 12:44:45;;;;;;;10.27;5.32;;;5.80;99.90;;;;;;5103566;28;20031;-75
2023/01/03 12:47:37;;;;;;;7.68;4.88;;;5.80;99.90;;;;;;5093956;28;20168;-73
2023/01/03 12:50:17;;;;;;;7.85;4.55;;;5.80;99.90;;;;;;5110302;28;20542;-73
2023/01/03 12:52:49;;;;;;;10.80;5.00;;;5.80;99.90;;;;;;5090501;28;20122;-72
2023/01/03 12:55:22;;;;;;;12.70;5.38;;;5.80;99.90;;;;;;5111329;28;20088;-73
2023/01/03 12:58:02;;;;;;;11.10;5.65;;;5.90;99.90;;;;;;5108276;28;20099;-73
2023/01/03 13:00:57;;;;;;;8.85;4.65;;;5.80;99.90;;;;;;5082149;28;20032;-72
2023/01/03 13:03:43;;;;;;;9.85;5.03;;;5.80;99.90;;;;;;5085969;28;20058;-72
2023/01/03 13:06:22;;;;;;;10.45;5.22;;;5.80;99.90;;;;;;5109839;28;20058;-73
2023/01/03 13:08:59;;;;;;;11.05;4.82;;;5.80;99.90;;;;;;5117387;28;20057;-75
2023/01/03 13:11:32;;;;;;;12.68;5.05;;;5.80;99.90;;;;;;5113326;28;20449;-75
2023/01/03 13:14:15;;;;;;;12.13;5.90;;;5.80;99.90;;;;;;5091596;28;20035;-73
2023/01/03 13:16:47;;;;;;;10.15;5.70;;;5.80;99.90;;;;;;5074079;28;20533;-75
2023/01/03 13:19:22;;;;;;;9.80;5.32;;;5.80;99.90;;;;;;5093021;28;20563;-73
2023/01/03 13:21:53;;;;;;;12.32;5.75;;;5.80;99.90;;;;;;5111896;28;20118;-74
2023/01/03 13:24:44;;;;;;;10.82;5.45;;;5.80;99.90;;;;;;5108437;28;20511;-74
2023/01/03 13:27:16;;;;;;;13.32;5.72;;;5.80;99.90;;;;;;5095081;28;20045;-73
2023/01/03 13:29:43;;;;;;;14.23;5.95;;;5.80;99.90;;;;;;5090926;28;20036;-73
2023/01/03 13:32:21;;;;;;;12.27;5.75;;;5.80;99.90;;;;;;5090232;28;20024;-75
2023/01/03 13:34:53;;;;;;;15.20;6.90;;;5.80;99.90;;;;;;5091413;28;20575;-72
2023/01/03 13:37:44;;;;;;;12.18;6.20;;;5.80;99.90;;;;;;5111710;28;20399;-73
2023/01/03 13:40:27;;;;;;;8.80;5.57;;;5.80;99.90;;;;;;5102926;28;20177;-72
2023/01/03 13:43:19;;;;;;;10.45;5.65;;;5.90;99.90;;;;;;5098710;28;20046;-72
2023/01/03 13:45:45;;;;;;;125.63;55.90;;;5.90;99.90;;;;;;5099770;28;20084;-74
2023/01/03 13:48:22;;;;;;;281.25;139.40;;;6.00;99.90;;;;;;5105080;27;20035;-72
2023/01/03 13:51:05;;;;;;;291.63;139.90;;;6.00;99.90;;;;;;5095291;28;20023;-72
2023/01/03 13:53:38;;;;;;;53.55;27.17;;;5.90;99.90;;;;;;5100215;28;20131;-74
2023/01/03 13:56:26;;;;;;;21.15;11.55;;;6.20;99.90;;;;;;5079367;28;20038;-73
2023/01/03 13:58:58;;;;;;;15.30;7.05;;;6.10;99.90;;;;;;5071282;28;20031;-72
2023/01/03 14:01:53;;;;;;;15.10;6.25;;;6.00;99.90;;;;;;5090953;28;20370;-72
2023/01/03 14:04:58;;;;;;;9.93;5.28;;;5.90;99.90;;;;;;5108701;28;20035;-74
2023/01/03 14:07:57;;;;;;;14.65;6.05;;;5.90;99.90;;;;;;5088082;28;20515;-73
2023/01/03 14:10:51;;;;;;;15.23;6.15;;;5.90;99.90;;;;;;5108504;28;20035;-72
2023/01/03 14:13:40;;;;;;;12.52;6.30;;;5.90;99.90;;;;;;5087842;28;21169;-73
2023/01/03 14:16:41;;;;;;;10.77;5.80;;;5.90;99.90;;;;;;5108790;28;20035;-73
2023/01/03 14:19:35;;;;;;;17.67;7.35;;;5.80;99.90;;;;;;5035841;28;20627;-74
2023/01/03 14:22:18;;;;;;;11.65;6.25;;;5.90;99.90;;;;;;5091325;28;20046;-73